createdAt,value
2019-02-19T00:00:02.143Z,1.10
2019-02-19T00:02:30.908Z,1.10
2019-02-19T00:04:59.581Z,2.10
2019-02-19T00:07:28.296Z,1.00
2019-02-19T00:09:56.948Z,1.10
2019-02-19T00:14:54.293Z,0.80
2019-02-19T00:19:51.281Z,0.80
2019-02-19T00:22:19.949Z,0.70
2019-02-19T00:24:48.652Z,0.70
2019-02-19T00:27:17.337Z,0.70
2019-02-19T00:29:45.997Z,0.70
2019-02-19T00:32:14.661Z,0.70
2019-02-19T00:34:43.394Z,0.70
2019-02-19T00:37:12.044Z,0.70
2019-02-19T00:42:09.037Z,0.60
2019-02-19T00:44:37.758Z,0.70
2019-02-19T00:47:06.413Z,0.70
2019-02-19T00:49:35.105Z,0.60
2019-02-19T00:52:03.758Z,0.70
2019-02-19T00:54:32.411Z,0.70
2019-02-19T00:57:01.051Z,0.60
2019-02-19T00:59:29.699Z,0.60
2019-02-19T01:04:26.633Z,0.60
2019-02-19T01:06:55.381Z,0.70
2019-02-19T01:09:24.106Z,0.70
2019-02-19T01:11:52.774Z,0.80
2019-02-19T01:14:21.445Z,0.80
2019-02-19T01:16:50.093Z,0.80
2019-02-19T01:19:19.837Z,0.80
2019-02-19T01:21:48.489Z,0.70
2019-02-19T01:26:45.429Z,0.60
2019-02-19T01:29:14.183Z,0.70
2019-02-19T01:31:43.147Z,0.40
2019-02-19T01:34:12.125Z,0.40
2019-02-19T01:36:41.112Z,0.40
2019-02-19T01:39:10.865Z,0.30
2019-02-19T01:41:39.537Z,0.30
2019-02-19T01:46:36.621Z,0.30
2019-02-19T01:49:05.270Z,0.40
2019-02-19T01:51:33.982Z,0.50
2019-02-19T01:54:02.641Z,0.30
2019-02-19T01:56:31.354Z,0.30
2019-02-19T01:59:00.018Z,0.30
2019-02-19T02:01:28.682Z,0.30
2019-02-19T02:03:57.314Z,0.40
2019-02-19T02:08:54.253Z,0.40
2019-02-19T02:11:22.901Z,0.30
2019-02-19T02:13:52.049Z,0.30
2019-02-19T02:16:20.689Z,0.30
2019-02-19T02:18:49.477Z,0.30
2019-02-19T02:21:18.141Z,0.20
2019-02-19T02:23:46.799Z,0.30
2019-02-19T02:26:15.444Z,0.20
2019-02-19T02:31:12.365Z,0.10
2019-02-19T02:33:41.050Z,0.30
2019-02-19T02:36:09.710Z,0.30
2019-02-19T02:38:38.449Z,0.10
2019-02-19T02:41:07.183Z,0.10
2019-02-19T02:43:35.887Z,0.20
2019-02-19T02:46:04.564Z,0.20
2019-02-19T02:48:33.486Z,0.60
2019-02-19T02:53:30.572Z,0.10
2019-02-19T02:55:59.300Z,0.10
2019-02-19T02:58:27.976Z,0.10
2019-02-19T03:00:56.683Z,0.00
2019-02-19T03:03:25.448Z,0.00
2019-02-19T03:06:01.143Z,0.00
2019-02-19T03:08:29.785Z,-0.10
2019-02-19T03:10:58.886Z,-0.20
2019-02-19T03:16:02.180Z,-0.20
2019-02-19T03:18:26.292Z,-0.20
2019-02-19T03:20:54.942Z,-0.30
2019-02-19T03:23:23.962Z,-0.20
2019-02-19T03:25:52.652Z,-0.30
2019-02-19T03:28:21.325Z,-0.20
2019-02-19T03:30:49.973Z,-0.20
2019-02-19T03:33:18.627Z,-0.30
2019-02-19T03:38:15.687Z,-0.30
2019-02-19T03:40:44.655Z,-0.30
2019-02-19T03:43:13.630Z,-0.30
2019-02-19T03:45:42.344Z,-0.20
2019-02-19T03:48:11.293Z,-0.20
2019-02-19T03:50:41.959Z,-0.20
2019-02-19T03:53:10.612Z,-0.20
2019-02-19T03:55:39.257Z,-0.40
2019-02-19T04:00:36.205Z,-0.30
2019-02-19T04:03:04.841Z,-0.30
2019-02-19T04:05:33.508Z,-0.30
2019-02-19T04:08:02.242Z,-0.40
2019-02-19T04:10:31.313Z,-0.20
2019-02-19T04:12:59.973Z,-0.20
2019-02-19T04:15:29.705Z,-0.10
2019-02-19T04:22:55.239Z,0.00
2019-02-19T04:25:23.885Z,0.10
2019-02-19T04:27:52.551Z,0.00
2019-02-19T04:30:21.219Z,0.00
2019-02-19T04:32:49.929Z,0.00
2019-02-19T04:35:18.871Z,0.00
2019-02-19T04:37:47.699Z,0.00
2019-02-19T04:42:44.901Z,0.00
2019-02-19T04:45:13.867Z,0.00
2019-02-19T04:47:42.522Z,0.20
2019-02-19T04:50:11.180Z,0.10
2019-02-19T04:52:39.838Z,0.10
2019-02-19T04:55:08.545Z,0.00
2019-02-19T04:57:37.201Z,-0.10
2019-02-19T05:00:07.064Z,0.00
2019-02-19T05:05:05.341Z,-0.20
2019-02-19T05:07:34.063Z,0.00
2019-02-19T05:10:02.788Z,-0.10
2019-02-19T05:12:31.445Z,-0.10
2019-02-19T05:15:00.419Z,-0.30
2019-02-19T05:17:29.077Z,-0.20
2019-02-19T05:19:57.729Z,-0.20
2019-02-19T05:22:26.665Z,-0.20
2019-02-19T05:27:23.661Z,-0.20
2019-02-19T05:29:52.305Z,-0.10
2019-02-19T05:32:21.055Z,0.00
2019-02-19T05:34:49.701Z,0.00
2019-02-19T05:37:18.349Z,0.00
2019-02-19T05:39:46.993Z,0.00
2019-02-19T05:42:15.777Z,-1.60
2019-02-19T05:44:44.818Z,-0.20
2019-02-19T05:49:42.096Z,-0.30
2019-02-19T05:52:10.782Z,-0.30
2019-02-19T05:54:39.426Z,-0.40
2019-02-19T05:57:08.094Z,-0.50
2019-02-19T05:59:36.753Z,-0.50
2019-02-19T06:02:05.816Z,-0.50
2019-02-19T06:04:35.049Z,-0.60
2019-02-19T06:07:03.781Z,-0.50
2019-02-19T06:12:00.709Z,-0.50
2019-02-19T06:14:29.436Z,-0.40
2019-02-19T06:16:58.721Z,-0.50
2019-02-19T06:19:27.815Z,-0.60
2019-02-19T06:21:56.474Z,-0.50
2019-02-19T06:24:25.222Z,-0.50
2019-02-19T06:26:53.981Z,-0.50
2019-02-19T06:31:51.265Z,-0.40
2019-02-19T06:34:19.940Z,-0.40
2019-02-19T06:36:48.603Z,-0.50
2019-02-19T06:39:17.266Z,-0.50
2019-02-19T06:41:46.277Z,-0.50
2019-02-19T06:44:14.929Z,-0.50
2019-02-19T06:46:43.646Z,-0.50
2019-02-19T06:49:12.415Z,-0.40
2019-02-19T06:54:09.442Z,-0.40
2019-02-19T06:56:38.101Z,-0.30
2019-02-19T06:59:06.792Z,-0.30
2019-02-19T07:02:09.981Z,-0.20
2019-02-19T07:04:42.673Z,-0.20
2019-02-19T07:07:11.341Z,-0.10
2019-02-19T07:09:40.040Z,0.00
2019-02-19T07:12:08.712Z,0.00
2019-02-19T07:14:37.400Z,0.10
2019-02-19T07:19:34.752Z,0.10
2019-02-19T07:22:03.466Z,0.30
2019-02-19T07:24:32.129Z,0.40
2019-02-19T07:27:02.881Z,0.40
2019-02-19T07:29:31.538Z,0.40
2019-02-19T07:32:00.193Z,0.60
2019-02-19T07:34:28.933Z,0.70
2019-02-19T07:36:59.674Z,0.80
2019-02-19T07:42:00.287Z,1.10
2019-02-19T07:44:28.952Z,1.40
2019-02-19T07:46:59.902Z,1.60
2019-02-19T07:49:28.551Z,1.90
2019-02-19T07:51:57.216Z,2.10
2019-02-19T07:54:25.971Z,2.50
2019-02-19T07:56:56.782Z,2.50
2019-02-19T07:59:25.472Z,3.30
2019-02-19T08:04:22.765Z,3.80
2019-02-19T08:06:51.770Z,4.20
2019-02-19T08:09:20.425Z,4.30
2019-02-19T08:11:49.151Z,4.80
2019-02-19T08:14:17.814Z,5.10
2019-02-19T08:16:47.545Z,5.60
2019-02-19T08:19:16.201Z,5.60
2019-02-19T08:21:44.862Z,6.30
2019-02-19T08:26:41.785Z,6.50
2019-02-19T08:29:13.733Z,7.00
2019-02-19T08:31:40.814Z,7.10
2019-02-19T08:34:09.485Z,7.10
2019-02-19T08:36:38.244Z,7.10
2019-02-19T08:39:07.009Z,7.20
2019-02-19T08:41:35.660Z,7.40
2019-02-19T08:44:04.329Z,7.90
2019-02-19T08:49:01.530Z,8.30
2019-02-19T08:51:30.190Z,8.70
2019-02-19T08:53:58.858Z,9.00
2019-02-19T08:56:27.550Z,9.40
2019-02-19T08:58:56.202Z,9.30
2019-02-19T09:01:24.854Z,9.30
2019-02-19T09:03:53.513Z,10.00
2019-02-19T09:06:22.164Z,10.10
2019-02-19T09:11:19.093Z,10.40
2019-02-19T09:13:47.929Z,10.60
2019-02-19T09:16:16.909Z,11.00
2019-02-19T09:18:45.553Z,11.30
2019-02-19T09:21:14.206Z,11.30
2019-02-19T09:23:42.889Z,11.60
2019-02-19T09:26:11.857Z,12.00
2019-02-19T09:28:40.553Z,12.20
2019-02-19T09:33:37.591Z,12.20
2019-02-19T09:36:06.338Z,12.50
2019-02-19T09:38:35.014Z,12.80
2019-02-19T09:41:03.692Z,13.00
2019-02-19T09:43:35.479Z,13.10
2019-02-19T09:46:02.781Z,12.90
2019-02-19T09:48:31.438Z,13.20
2019-02-19T09:51:00.089Z,13.70
2019-02-19T09:55:57.042Z,13.90
2019-02-19T09:58:25.710Z,14.00
2019-02-19T10:00:54.378Z,14.00
2019-02-19T10:03:23.241Z,14.10
2019-02-19T10:05:51.894Z,14.30
2019-02-19T10:08:20.546Z,14.40
2019-02-19T10:10:49.204Z,14.60
2019-02-19T10:18:14.753Z,14.80
2019-02-19T10:20:43.418Z,15.00
2019-02-19T10:23:12.171Z,15.10
2019-02-19T10:25:40.874Z,15.30
2019-02-19T10:28:09.538Z,15.50
2019-02-19T10:30:38.596Z,15.60
2019-02-19T10:33:07.270Z,16.60
2019-02-19T10:38:04.226Z,15.90
2019-02-19T10:40:32.976Z,16.10
2019-02-19T10:43:01.676Z,16.30
2019-02-19T10:45:30.633Z,16.30
2019-02-19T10:47:59.298Z,16.30
2019-02-19T10:50:27.970Z,16.30
2019-02-19T10:52:56.609Z,16.30
2019-02-19T10:55:25.549Z,16.20
2019-02-19T11:00:23.218Z,16.20
2019-02-19T11:02:51.903Z,16.00
2019-02-19T11:05:20.708Z,15.80
2019-02-19T11:07:49.362Z,15.80
2019-02-19T11:10:18.119Z,15.90
2019-02-19T11:12:46.765Z,15.80
2019-02-19T11:15:17.328Z,16.00
2019-02-19T11:17:45.927Z,16.30
2019-02-19T11:22:43.298Z,16.30
2019-02-19T11:25:12.245Z,16.40
2019-02-19T11:27:40.897Z,16.40
2019-02-19T11:30:12.291Z,16.50
2019-02-19T11:32:40.959Z,16.50
2019-02-19T11:35:09.782Z,16.70
2019-02-19T11:37:38.419Z,16.70
2019-02-19T11:40:08.739Z,16.10
2019-02-19T11:45:06.419Z,16.10
2019-02-19T11:47:35.177Z,16.10
2019-02-19T11:50:03.870Z,16.00
2019-02-19T11:52:32.578Z,16.10
2019-02-19T11:55:01.218Z,16.00
2019-02-19T11:57:30.206Z,15.80
2019-02-19T11:59:58.860Z,15.90
2019-02-19T12:02:32.913Z,16.00
2019-02-19T12:07:26.301Z,15.90
2019-02-19T12:09:54.945Z,15.90
2019-02-19T12:12:23.609Z,15.90
2019-02-19T12:14:52.614Z,15.80
2019-02-19T12:17:21.340Z,15.60
2019-02-19T12:19:50.246Z,15.60
2019-02-19T12:22:19.395Z,15.60
2019-02-19T12:24:48.121Z,15.50
2019-02-19T12:29:45.126Z,15.50
2019-02-19T12:32:13.772Z,15.50
2019-02-19T12:34:42.425Z,15.50
2019-02-19T12:37:11.086Z,15.40
2019-02-19T12:39:40.295Z,15.40
2019-02-19T12:42:08.932Z,15.30
2019-02-19T12:44:37.629Z,15.00
2019-02-19T12:47:06.281Z,15.10
2019-02-19T12:52:03.283Z,15.40
2019-02-19T12:54:32.016Z,15.40
2019-02-19T12:57:00.710Z,15.30
2019-02-19T12:59:29.621Z,15.20
2019-02-19T13:01:58.280Z,14.90
2019-02-19T13:04:27.234Z,14.90
2019-02-19T13:06:56.133Z,14.90
2019-02-19T13:11:54.123Z,14.90
2019-02-19T13:14:23.235Z,15.10
2019-02-19T13:16:51.905Z,15.20
2019-02-19T13:19:20.555Z,15.30
2019-02-19T13:21:49.216Z,15.40
2019-02-19T13:24:17.882Z,15.40
2019-02-19T13:26:46.743Z,15.60
2019-02-19T13:29:15.401Z,15.40
2019-02-19T13:34:12.533Z,15.40
2019-02-19T13:36:41.190Z,15.50
2019-02-19T13:39:09.862Z,15.40
2019-02-19T13:41:38.517Z,15.50
2019-02-19T13:44:07.436Z,15.40
2019-02-19T13:46:36.081Z,15.40
2019-02-19T13:49:12.015Z,15.30
2019-02-19T13:51:35.126Z,15.20
2019-02-19T13:59:35.055Z,14.80
2019-02-19T14:02:03.787Z,14.80
2019-02-19T14:04:32.462Z,14.80
2019-02-19T14:07:01.251Z,14.60
2019-02-19T14:09:29.946Z,14.50
2019-02-19T14:11:58.612Z,14.50
2019-02-19T14:14:52.444Z,14.50
2019-02-19T14:20:02.147Z,14.60
2019-02-19T14:22:48.720Z,14.60
2019-02-19T14:25:39.590Z,14.60
2019-02-19T14:28:30.653Z,14.50
2019-02-19T14:31:17.356Z,14.60
2019-02-19T14:34:04.163Z,14.70
2019-02-19T14:36:51.074Z,14.70
2019-02-19T14:39:38.851Z,14.70
2019-02-19T14:42:29.591Z,14.60
2019-02-19T14:45:23.197Z,14.60
2019-02-19T14:56:57.891Z,14.40
2019-02-19T14:59:48.616Z,14.40
2019-02-19T15:02:35.537Z,14.40
2019-02-19T15:05:22.269Z,14.40
2019-02-19T15:08:09.059Z,14.20
2019-02-19T15:11:09.019Z,14.20
2019-02-19T15:13:55.867Z,14.20
2019-02-19T15:16:42.363Z,14.20
2019-02-19T15:19:29.898Z,14.10
2019-02-19T15:24:59.959Z,14.20
2019-02-19T15:27:47.685Z,14.10
2019-02-19T15:30:23.663Z,14.10
2019-02-19T15:33:01.397Z,14.20
2019-02-19T15:35:58.221Z,14.30
2019-02-19T15:38:55.026Z,14.20
2019-02-19T15:41:51.897Z,14.10
2019-02-19T15:44:38.301Z,14.10
2019-02-19T15:47:28.729Z,14.10
2019-02-19T15:50:08.527Z,14.20
2019-02-19T15:55:58.889Z,14.20
2019-02-19T15:58:55.670Z,14.30
2019-02-19T16:01:43.473Z,14.20
2019-02-19T16:04:31.229Z,14.10
2019-02-19T16:07:17.986Z,14.10
2019-02-19T16:10:01.362Z,14.00
2019-02-19T16:12:40.877Z,13.80
2019-02-19T16:15:16.570Z,13.70
2019-02-19T16:18:02.862Z,13.60
2019-02-19T16:23:31.585Z,13.40
2019-02-19T16:26:10.188Z,13.30
2019-02-19T16:28:44.788Z,13.20
2019-02-19T16:31:24.325Z,13.10
2019-02-19T16:34:09.225Z,13.00
2019-02-19T16:37:03.101Z,12.70
2019-02-19T16:39:57.482Z,12.60
2019-02-19T16:42:36.579Z,12.10
2019-02-19T16:51:09.309Z,11.70
2019-02-19T16:54:01.033Z,11.60
2019-02-19T16:56:42.004Z,11.50
2019-02-19T16:59:36.153Z,11.30
2019-02-19T17:02:22.830Z,11.10
2019-02-19T17:05:06.377Z,10.80
2019-02-19T17:07:46.374Z,10.80
2019-02-19T17:10:22.534Z,10.70
2019-02-19T17:15:41.128Z,10.40
2019-02-19T17:18:23.410Z,10.40
2019-02-19T17:21:02.259Z,10.30
2019-02-19T17:23:56.112Z,10.20
2019-02-19T17:26:32.950Z,10.10
2019-02-19T17:29:07.526Z,10.20
2019-02-19T17:31:50.856Z,10.20
2019-02-19T17:34:38.897Z,10.00
2019-02-19T17:43:03.715Z,9.90
2019-02-19T17:45:53.549Z,9.90
2019-02-19T17:48:40.064Z,9.90
2019-02-19T17:51:40.759Z,9.80
2019-02-19T17:54:18.675Z,9.80
2019-02-19T17:56:59.543Z,9.70
2019-02-19T17:59:52.034Z,9.70
2019-02-19T18:02:30.257Z,9.60
2019-02-19T18:08:02.658Z,9.20
2019-02-19T18:10:46.498Z,9.10
2019-02-19T18:13:40.336Z,9.10
2019-02-19T18:16:26.827Z,9.10
2019-02-19T18:18:55.594Z,9.10
2019-02-19T18:21:24.590Z,9.10
2019-02-19T18:23:53.346Z,8.90
2019-02-19T18:28:50.645Z,8.90
2019-02-19T18:31:19.579Z,8.90
2019-02-19T18:33:48.426Z,8.90
2019-02-19T18:36:17.093Z,8.90
2019-02-19T18:38:45.888Z,8.90
2019-02-19T18:41:14.574Z,8.80
2019-02-19T18:43:43.405Z,8.90
2019-02-19T18:46:12.087Z,8.70
2019-02-19T18:51:09.310Z,8.50
2019-02-19T18:53:38.069Z,8.50
2019-02-19T18:56:06.814Z,8.50
2019-02-19T18:58:35.842Z,8.40
2019-02-19T19:01:04.580Z,8.40
2019-02-19T19:03:33.409Z,8.40
2019-02-19T19:06:02.390Z,8.40
2019-02-19T19:08:31.105Z,8.40
2019-02-19T19:13:28.241Z,8.60
2019-02-19T19:15:56.934Z,8.70
2019-02-19T19:18:30.131Z,8.70
2019-02-19T19:21:07.487Z,8.70
2019-02-19T19:23:29.619Z,8.70
2019-02-19T19:25:58.301Z,8.60
2019-02-19T19:28:27.060Z,8.60
2019-02-19T19:30:56.278Z,8.60
2019-02-19T19:35:53.349Z,8.60
2019-02-19T19:38:22.042Z,8.60
2019-02-19T19:40:50.702Z,8.60
2019-02-19T19:43:19.386Z,8.50
2019-02-19T19:45:48.041Z,8.40
2019-02-19T19:48:16.754Z,8.30
2019-02-19T19:50:45.652Z,8.10
2019-02-19T19:53:14.373Z,7.80
2019-02-19T19:58:11.401Z,7.80
2019-02-19T20:00:40.161Z,7.80
2019-02-19T20:03:08.946Z,7.90
2019-02-19T20:05:37.613Z,8.10
2019-02-19T20:08:06.312Z,7.90
2019-02-19T20:10:35.001Z,7.90
2019-02-19T20:13:03.780Z,7.80
2019-02-19T20:15:32.528Z,7.70
2019-02-19T20:20:30.925Z,7.70
2019-02-19T20:22:59.669Z,7.70
2019-02-19T20:25:28.394Z,7.80
2019-02-19T20:27:57.177Z,7.90
2019-02-19T20:30:25.932Z,7.80
2019-02-19T20:32:54.617Z,7.70
2019-02-19T20:35:23.293Z,7.70
2019-02-19T20:42:50.484Z,7.70
2019-02-19T20:45:19.162Z,7.50
2019-02-19T20:47:48.174Z,7.50
2019-02-19T20:50:16.853Z,6.60
2019-02-19T20:52:45.622Z,7.60
2019-02-19T20:55:14.570Z,7.70
2019-02-19T20:57:43.353Z,7.60
2019-02-19T21:02:42.210Z,7.40
2019-02-19T21:05:10.926Z,7.40
2019-02-19T21:07:39.703Z,7.40
2019-02-19T21:10:11.101Z,7.40
2019-02-19T21:12:39.793Z,7.50
2019-02-19T21:15:08.527Z,7.40
2019-02-19T21:17:37.181Z,7.50
2019-02-19T21:20:07.332Z,7.20
2019-02-19T21:25:04.738Z,7.00
2019-02-19T21:27:33.471Z,7.00
2019-02-19T21:30:02.402Z,7.00
2019-02-19T21:32:31.045Z,6.90
2019-02-19T21:34:59.728Z,7.00
2019-02-19T21:37:28.719Z,7.10
2019-02-19T21:40:04.446Z,7.00
2019-02-19T21:42:50.221Z,7.00
2019-02-19T21:45:27.071Z,6.90
2019-02-19T21:48:04.856Z,6.80
2019-02-19T21:53:02.931Z,6.70
2019-02-19T21:55:32.101Z,6.70
2019-02-19T21:58:06.528Z,6.70
2019-02-19T22:05:45.637Z,6.60
2019-02-19T22:08:14.411Z,6.70
2019-02-19T22:10:53.967Z,6.60
2019-02-19T22:13:22.690Z,6.60
2019-02-19T22:18:21.425Z,6.60
2019-02-19T22:20:59.758Z,6.40
2019-02-19T22:23:28.437Z,6.50
2019-02-19T22:25:57.116Z,6.50
2019-02-19T22:28:26.059Z,6.50
2019-02-19T22:30:54.959Z,6.50
2019-02-19T22:33:23.643Z,6.70
2019-02-19T22:38:20.641Z,6.80
2019-02-19T22:40:55.045Z,7.80
2019-02-19T22:43:19.849Z,7.00
2019-02-19T22:45:48.534Z,6.90
2019-02-19T22:48:17.233Z,6.80
2019-02-19T22:50:46.688Z,6.80
2019-02-19T22:53:52.973Z,6.90
2019-02-19T22:56:25.308Z,6.80
2019-02-19T22:58:53.944Z,6.70
2019-02-19T23:06:37.122Z,6.70
2019-02-19T23:09:06.757Z,6.70
2019-02-19T23:11:35.557Z,6.70
2019-02-19T23:14:04.288Z,6.60
2019-02-19T23:16:33.794Z,6.50
2019-02-19T23:19:02.465Z,6.50
2019-02-19T23:23:59.658Z,6.30
2019-02-19T23:28:56.755Z,6.20
2019-02-19T23:31:25.718Z,6.20
2019-02-19T23:33:54.772Z,6.20
2019-02-19T23:36:37.110Z,6.20
2019-02-19T23:39:06.583Z,6.10
2019-02-19T23:41:35.245Z,6.10
2019-02-19T23:44:04.042Z,6.10
2019-02-19T23:49:01.526Z,6.10
2019-02-19T23:51:30.254Z,6.10
2019-02-19T23:53:59.045Z,6.10
2019-02-19T23:56:27.758Z,6.10
2019-02-19T23:58:56.569Z,6.10
